sensor_id;sensor_type;location;lat;lon;timestamp;pressure;altitude;pressure_sealevel;temperature;humidity
23427;BME280;41148;45.420;10.952;2023-05-12T00:01:48;100375.19;;;12.76;100.00
23427;BME280;41148;45.420;10.952;2023-05-12T00:04:15;100378.09;;;12.70;100.00
23427;BME280;41148;45.420;10.952;2023-05-12T00:06:43;100372.03;;;12.67;100.00
23427;BME280;41148;45.420;10.952;2023-05-12T00:09:10;100365.13;;;12.61;100.00
23427;BME280;41148;45.420;10.952;2023-05-12T00:11:38;100387.84;;;12.71;100.00
23427;BME280;41148;45.420;10.952;2023-05-12T00:14:06;100362.78;;;12.74;100.00
23427;BME280;41148;45.420;10.952;2023-05-12T00:16:33;100384.00;;;12.78;100.00
23427;BME280;41148;45.420;10.952;2023-05-12T00:19:01;100352.44;;;12.66;100.00
23427;BME280;41148;45.420;10.952;2023-05-12T00:21:28;100376.84;;;12.79;100.00
23427;BME280;41148;45.420;10.952;2023-05-12T00:23:56;100365.59;;;12.71;100.00
23427;BME280;41148;45.420;10.952;2023-05-12T00:26:23;100358.47;;;12.71;100.00
23427;BME280;41148;45.420;10.952;2023-05-12T00:28:51;100347.50;;;12.57;100.00
23427;BME280;41148;45.420;10.952;2023-05-12T00:31:19;100363.88;;;12.70;100.00
23427;BME280;41148;45.420;10.952;2023-05-12T00:33:46;100368.09;;;12.75;100.00
23427;BME280;41148;45.420;10.952;2023-05-12T00:36:14;100364.34;;;12.79;100.00
23427;BME280;41148;45.420;10.952;2023-05-12T00:38:41;100363.81;;;12.71;100.00
23427;BME280;41148;45.420;10.952;2023-05-12T00:41:08;100355.06;;;12.68;100.00
23427;BME280;41148;45.420;10.952;2023-05-12T00:43:36;100362.56;;;12.80;100.00
23427;BME280;41148;45.420;10.952;2023-05-12T00:46:04;100354.06;;;12.70;100.00
23427;BME280;41148;45.420;10.952;2023-05-12T00:48:32;100363.63;;;12.76;100.00
23427;BME280;41148;45.420;10.952;2023-05-12T00:51:02;100352.63;;;12.61;100.00
23427;BME280;41148;45.420;10.952;2023-05-12T00:53:31;100360.53;;;12.65;100.00
23427;BME280;41148;45.420;10.952;2023-05-12T00:56:16;100358.09;;;12.58;100.00
23427;BME280;41148;45.420;10.952;2023-05-12T00:58:44;100365.91;;;12.63;100.00
23427;BME280;41148;45.420;10.952;2023-05-12T01:01:13;100358.03;;;12.60;100.00
23427;BME280;41148;45.420;10.952;2023-05-12T01:03:40;100351.75;;;12.61;100.00
23427;BME280;41148;45.420;10.952;2023-05-12T01:06:16;100336.03;;;12.53;100.00
23427;BME280;41148;45.420;10.952;2023-05-12T01:08:46;100335.78;;;12.59;100.00
23427;BME280;41148;45.420;10.952;2023-05-12T01:11:14;100349.88;;;12.63;100.00
23427;BME280;41148;45.420;10.952;2023-05-12T01:13:42;100341.28;;;12.56;100.00
23427;BME280;41148;45.420;10.952;2023-05-12T01:16:12;100348.06;;;12.64;100.00
23427;BME280;41148;45.420;10.952;2023-05-12T01:18:42;100341.88;;;12.63;100.00
23427;BME280;41148;45.420;10.952;2023-05-12T01:21:16;100348.91;;;12.66;100.00
23427;BME280;41148;45.420;10.952;2023-05-12T01:23:50;100345.69;;;12.57;100.00
23427;BME280;41148;45.420;10.952;2023-05-12T01:26:20;100352.34;;;12.47;100.00
23427;BME280;41148;45.420;10.952;2023-05-12T01:28:49;100349.59;;;12.49;100.00
23427;BME280;41148;45.420;10.952;2023-05-12T01:31:17;100351.13;;;12.54;100.00
23427;BME280;41148;45.420;10.952;2023-05-12T01:33:47;100359.34;;;12.50;100.00
23427;BME280;41148;45.420;10.952;2023-05-12T01:36:15;100356.81;;;12.47;100.00
23427;BME280;41148;45.420;10.952;2023-05-12T01:38:43;100354.16;;;12.47;100.00
23427;BME280;41148;45.420;10.952;2023-05-12T01:41:10;100360.28;;;12.49;100.00
23427;BME280;41148;45.420;10.952;2023-05-12T01:43:38;100347.00;;;12.47;100.00
23427;BME280;41148;45.420;10.952;2023-05-12T01:46:06;100370.91;;;12.50;100.00
23427;BME280;41148;45.420;10.952;2023-05-12T01:48:33;100354.13;;;12.25;100.00
23427;BME280;41148;45.420;10.952;2023-05-12T01:51:01;100375.50;;;12.25;100.00
23427;BME280;41148;45.420;10.952;2023-05-12T01:53:29;100354.25;;;12.22;100.00
23427;BME280;41148;45.420;10.952;2023-05-12T01:55:57;100374.31;;;12.32;100.00
23427;BME280;41148;45.420;10.952;2023-05-12T01:58:33;100362.59;;;12.36;100.00
23427;BME280;41148;45.420;10.952;2023-05-12T02:01:01;100380.44;;;12.36;100.00
23427;BME280;41148;45.420;10.952;2023-05-12T02:03:29;100364.34;;;12.37;100.00
23427;BME280;41148;45.420;10.952;2023-05-12T02:05:56;100364.50;;;12.32;100.00
23427;BME280;41148;45.420;10.952;2023-05-12T02:08:25;100361.97;;;12.29;100.00
23427;BME280;41148;45.420;10.952;2023-05-12T02:11:06;100364.56;;;12.31;100.00
23427;BME280;41148;45.420;10.952;2023-05-12T02:13:34;100366.94;;;12.39;100.00
23427;BME280;41148;45.420;10.952;2023-05-12T02:16:02;100359.78;;;12.39;100.00
23427;BME280;41148;45.420;10.952;2023-05-12T02:18:30;100364.56;;;12.31;100.00
23427;BME280;41148;45.420;10.952;2023-05-12T02:20:58;100368.91;;;12.33;100.00
23427;BME280;41148;45.420;10.952;2023-05-12T02:23:25;100351.34;;;12.28;100.00
23427;BME280;41148;45.420;10.952;2023-05-12T02:25:53;100371.34;;;12.40;100.00
23427;BME280;41148;45.420;10.952;2023-05-12T02:28:20;100350.56;;;12.26;100.00
23427;BME280;41148;45.420;10.952;2023-05-12T02:30:49;100361.66;;;12.37;100.00
23427;BME280;41148;45.420;10.952;2023-05-12T02:33:19;100373.31;;;12.35;100.00
23427;BME280;41148;45.420;10.952;2023-05-12T02:35:46;100363.41;;;12.38;100.00
23427;BME280;41148;45.420;10.952;2023-05-12T02:38:14;100352.28;;;12.27;100.00
23427;BME280;41148;45.420;10.952;2023-05-12T02:40:42;100353.75;;;12.34;100.00
23427;BME280;41148;45.420;10.952;2023-05-12T02:43:10;100364.41;;;12.36;100.00
23427;BME280;41148;45.420;10.952;2023-05-12T02:45:38;100352.16;;;12.30;100.00
23427;BME280;41148;45.420;10.952;2023-05-12T02:48:06;100368.47;;;12.22;100.00
23427;BME280;41148;45.420;10.952;2023-05-12T02:50:33;100359.16;;;12.11;100.00
23427;BME280;41148;45.420;10.952;2023-05-12T02:53:01;100361.44;;;11.98;100.00
23427;BME280;41148;45.420;10.952;2023-05-12T02:55:28;100363.19;;;11.99;100.00
23427;BME280;41148;45.420;10.952;2023-05-12T02:57:56;100364.44;;;12.12;100.00
23427;BME280;41148;45.420;10.952;2023-05-12T03:00:25;100371.50;;;12.13;100.00
23427;BME280;41148;45.420;10.952;2023-05-12T03:02:52;100365.25;;;12.14;100.00
23427;BME280;41148;45.420;10.952;2023-05-12T03:05:20;100350.09;;;12.15;100.00
23427;BME280;41148;45.420;10.952;2023-05-12T03:07:49;100356.06;;;12.21;100.00
23427;BME280;41148;45.420;10.952;2023-05-12T03:10:16;100358.44;;;12.29;100.00
23427;BME280;41148;45.420;10.952;2023-05-12T03:12:45;100361.25;;;12.24;100.00
23427;BME280;41148;45.420;10.952;2023-05-12T03:15:12;100351.44;;;12.25;100.00
23427;BME280;41148;45.420;10.952;2023-05-12T03:17:40;100357.94;;;12.19;100.00
23427;BME280;41148;45.420;10.952;2023-05-12T03:20:07;100356.84;;;12.23;100.00
23427;BME280;41148;45.420;10.952;2023-05-12T03:22:36;100344.88;;;12.12;100.00
23427;BME280;41148;45.420;10.952;2023-05-12T03:25:04;100355.25;;;12.19;100.00
23427;BME280;41148;45.420;10.952;2023-05-12T03:27:33;100354.31;;;12.20;100.00
23427;BME280;41148;45.420;10.952;2023-05-12T03:30:01;100339.91;;;12.24;100.00
23427;BME280;41148;45.420;10.952;2023-05-12T03:32:34;100345.25;;;12.24;100.00
23427;BME280;41148;45.420;10.952;2023-05-12T03:35:01;100334.75;;;12.20;100.00
23427;BME280;41148;45.420;10.952;2023-05-12T03:37:28;100343.94;;;12.13;100.00
23427;BME280;41148;45.420;10.952;2023-05-12T03:39:56;100342.91;;;12.17;100.00
23427;BME280;41148;45.420;10.952;2023-05-12T03:42:24;100336.00;;;12.11;100.00
23427;BME280;41148;45.420;10.952;2023-05-12T03:44:51;100353.59;;;12.17;100.00
23427;BME280;41148;45.420;10.952;2023-05-12T03:47:19;100347.47;;;12.13;100.00
23427;BME280;41148;45.420;10.952;2023-05-12T03:49:47;100357.13;;;12.17;100.00
23427;BME280;41148;45.420;10.952;2023-05-12T03:52:15;100353.59;;;12.17;100.00
23427;BME280;41148;45.420;10.952;2023-05-12T03:54:44;100334.63;;;12.01;100.00
23427;BME280;41148;45.420;10.952;2023-05-12T03:57:13;100352.00;;;12.11;100.00
23427;BME280;41148;45.420;10.952;2023-05-12T03:59:40;100333.75;;;12.00;100.00
23427;BME280;41148;45.420;10.952;2023-05-12T04:02:08;100338.97;;;12.03;100.00
23427;BME280;41148;45.420;10.952;2023-05-12T04:04:39;100345.16;;;12.04;100.00
23427;BME280;41148;45.420;10.952;2023-05-12T04:07:06;100340.19;;;11.95;100.00
23427;BME280;41148;45.420;10.952;2023-05-12T04:09:33;100354.13;;;12.03;100.00
23427;BME280;41148;45.420;10.952;2023-05-12T04:12:01;100339.16;;;11.99;100.00
23427;BME280;41148;45.420;10.952;2023-05-12T04:14:28;100358.44;;;12.06;100.00
23427;BME280;41148;45.420;10.952;2023-05-12T04:17:09;100354.25;;;12.00;100.00
23427;BME280;41148;45.420;10.952;2023-05-12T04:19:37;100343.06;;;12.12;100.00
23427;BME280;41148;45.420;10.952;2023-05-12T04:22:05;100350.78;;;11.98;100.00
23427;BME280;41148;45.420;10.952;2023-05-12T04:24:32;100355.19;;;11.99;100.00
23427;BME280;41148;45.420;10.952;2023-05-12T04:27:00;100356.56;;;12.09;100.00
23427;BME280;41148;45.420;10.952;2023-05-12T04:29:28;100339.75;;;12.06;100.00
23427;BME280;41148;45.420;10.952;2023-05-12T04:31:55;100354.50;;;12.16;100.00
23427;BME280;41148;45.420;10.952;2023-05-12T04:34:24;100359.91;;;12.14;100.00
23427;BME280;41148;45.420;10.952;2023-05-12T04:36:51;100362.56;;;12.14;100.00
23427;BME280;41148;45.420;10.952;2023-05-12T04:39:19;100361.75;;;12.12;100.00
23427;BME280;41148;45.420;10.952;2023-05-12T04:41:47;100372.28;;;12.17;100.00
23427;BME280;41148;45.420;10.952;2023-05-12T04:44:15;100376.78;;;12.15;100.00
23427;BME280;41148;45.420;10.952;2023-05-12T04:46:42;100372.16;;;12.20;100.00
23427;BME280;41148;45.420;10.952;2023-05-12T04:49:10;100379.09;;;12.24;100.00
23427;BME280;41148;45.420;10.952;2023-05-12T04:51:37;100369.41;;;12.21;100.00
23427;BME280;41148;45.420;10.952;2023-05-12T04:54:09;100384.75;;;12.16;100.00
23427;BME280;41148;45.420;10.952;2023-05-12T04:56:37;100376.78;;;12.15;100.00
23427;BME280;41148;45.420;10.952;2023-05-12T04:59:06;100372.50;;;12.11;100.00
23427;BME280;41148;45.420;10.952;2023-05-12T05:01:33;100396.97;;;12.00;100.00
23427;BME280;41148;45.420;10.952;2023-05-12T05:04:01;100385.28;;;12.02;100.00
23427;BME280;41148;45.420;10.952;2023-05-12T05:06:29;100382.84;;;11.96;100.00
23427;BME280;41148;45.420;10.952;2023-05-12T05:08:58;100379.88;;;12.04;100.00
23427;BME280;41148;45.420;10.952;2023-05-12T05:11:25;100389.69;;;12.03;100.00
23427;BME280;41148;45.420;10.952;2023-05-12T05:13:53;100388.81;;;12.03;100.00
23427;BME280;41148;45.420;10.952;2023-05-12T05:16:20;100388.53;;;12.11;100.00
23427;BME280;41148;45.420;10.952;2023-05-12T05:18:49;100396.47;;;12.12;100.00
23427;BME280;41148;45.420;10.952;2023-05-12T05:21:17;100377.84;;;12.11;100.00
23427;BME280;41148;45.420;10.952;2023-05-12T05:23:44;100405.34;;;12.13;100.00
23427;BME280;41148;45.420;10.952;2023-05-12T05:26:12;100399.03;;;12.15;100.00
23427;BME280;41148;45.420;10.952;2023-05-12T05:28:39;100410.63;;;12.14;100.00
23427;BME280;41148;45.420;10.952;2023-05-12T05:31:07;100398.00;;;12.19;100.00
23427;BME280;41148;45.420;10.952;2023-05-12T05:33:39;100418.84;;;12.10;100.00
23427;BME280;41148;45.420;10.952;2023-05-12T05:36:07;100408.56;;;11.99;100.00
23427;BME280;41148;45.420;10.952;2023-05-12T05:38:34;100410.69;;;12.13;100.00
23427;BME280;41148;45.420;10.952;2023-05-12T05:41:02;100415.16;;;12.12;100.00
23427;BME280;41148;45.420;10.952;2023-05-12T05:43:30;100413.38;;;12.13;100.00
23427;BME280;41148;45.420;10.952;2023-05-12T05:45:58;100417.03;;;12.10;100.00
23427;BME280;41148;45.420;10.952;2023-05-12T05:48:26;100414.16;;;12.16;100.00
23427;BME280;41148;45.420;10.952;2023-05-12T05:50:54;100435.53;;;12.15;100.00
23427;BME280;41148;45.420;10.952;2023-05-12T05:53:24;100423.88;;;12.17;100.00
23427;BME280;41148;45.420;10.952;2023-05-12T05:55:52;100419.50;;;12.15;100.00
23427;BME280;41148;45.420;10.952;2023-05-12T05:58:20;100416.03;;;12.13;100.00
23427;BME280;41148;45.420;10.952;2023-05-12T06:00:48;100423.81;;;12.19;100.00
23427;BME280;41148;45.420;10.952;2023-05-12T06:03:16;100430.84;;;12.21;100.00
23427;BME280;41148;45.420;10.952;2023-05-12T06:05:44;100422.69;;;12.24;100.00
23427;BME280;41148;45.420;10.952;2023-05-12T06:08:12;100417.41;;;12.23;100.00
23427;BME280;41148;45.420;10.952;2023-05-12T06:10:40;100421.16;;;12.19;100.00
23427;BME280;41148;45.420;10.952;2023-05-12T06:13:08;100422.19;;;12.15;100.00
23427;BME280;41148;45.420;10.952;2023-05-12T06:15:35;100423.81;;;12.19;100.00
23427;BME280;41148;45.420;10.952;2023-05-12T06:18:07;100413.88;;;12.22;100.00
23427;BME280;41148;45.420;10.952;2023-05-12T06:20:38;100414.00;;;12.19;100.00
23427;BME280;41148;45.420;10.952;2023-05-12T06:23:07;100420.38;;;12.15;100.00
23427;BME280;41148;45.420;10.952;2023-05-12T06:25:35;100429.09;;;12.20;100.00
23427;BME280;41148;45.420;10.952;2023-05-12T06:28:02;100422.03;;;12.19;100.00
23427;BME280;41148;45.420;10.952;2023-05-12T06:30:30;100424.50;;;12.24;100.00
23427;BME280;41148;45.420;10.952;2023-05-12T06:32:58;100428.63;;;12.32;100.00
23427;BME280;41148;45.420;10.952;2023-05-12T06:35:27;100437.56;;;12.31;100.00
23427;BME280;41148;45.420;10.952;2023-05-12T06:37:54;100431.41;;;12.29;100.00
23427;BME280;41148;45.420;10.952;2023-05-12T06:40:27;100441.09;;;12.32;100.00
23427;BME280;41148;45.420;10.952;2023-05-12T06:42:56;100441.81;;;12.37;100.00
23427;BME280;41148;45.420;10.952;2023-05-12T06:45:28;100444.34;;;12.40;100.00
23427;BME280;41148;45.420;10.952;2023-05-12T06:47:58;100444.41;;;12.39;100.00
23427;BME280;41148;45.420;10.952;2023-05-12T06:50:27;100438.13;;;12.40;100.00
23427;BME280;41148;45.420;10.952;2023-05-12T06:52:55;100452.59;;;12.34;100.00
23427;BME280;41148;45.420;10.952;2023-05-12T06:55:22;100440.88;;;12.38;100.00
23427;BME280;41148;45.420;10.952;2023-05-12T06:57:50;100444.41;;;12.39;100.00
23427;BME280;41148;45.420;10.952;2023-05-12T07:00:22;100441.03;;;12.33;100.00
23427;BME280;41148;45.420;10.952;2023-05-12T07:02:50;100446.88;;;12.43;100.00
23427;BME280;41148;45.420;10.952;2023-05-12T07:05:18;100448.63;;;12.44;100.00
23427;BME280;41148;45.420;10.952;2023-05-12T07:07:46;100447.47;;;12.51;100.00
23427;BME280;41148;45.420;10.952;2023-05-12T07:10:13;100440.44;;;12.49;100.00
23427;BME280;41148;45.420;10.952;2023-05-12T07:12:42;100444.72;;;12.53;100.00
23427;BME280;41148;45.420;10.952;2023-05-12T07:15:10;100453.50;;;12.56;100.00
23427;BME280;41148;45.420;10.952;2023-05-12T07:17:37;100454.25;;;12.60;100.00
23427;BME280;41148;45.420;10.952;2023-05-12T07:20:06;100458.22;;;12.72;100.00
23427;BME280;41148;45.420;10.952;2023-05-12T07:22:34;100466.53;;;12.64;100.00
23427;BME280;41148;45.420;10.952;2023-05-12T07:25:05;100452.22;;;12.67;100.00
23427;BME280;41148;45.420;10.952;2023-05-12T07:27:34;100448.34;;;12.74;100.00
23427;BME280;41148;45.420;10.952;2023-05-12T07:30:02;100468.38;;;12.85;100.00
23427;BME280;41148;45.420;10.952;2023-05-12T07:32:29;100456.50;;;12.71;100.00
23427;BME280;41148;45.420;10.952;2023-05-12T07:34:57;100463.91;;;12.86;100.00
23427;BME280;41148;45.420;10.952;2023-05-12T07:37:24;100462.69;;;12.93;100.00
23427;BME280;41148;45.420;10.952;2023-05-12T07:39:52;100467.94;;;12.96;100.00
23427;BME280;41148;45.420;10.952;2023-05-12T07:42:20;100460.19;;;13.10;100.00
23427;BME280;41148;45.420;10.952;2023-05-12T07:44:48;100454.78;;;13.12;100.00
23427;BME280;41148;45.420;10.952;2023-05-12T07:47:15;100457.16;;;13.20;100.00
23427;BME280;41148;45.420;10.952;2023-05-12T07:49:43;100457.31;;;13.37;100.00
23427;BME280;41148;45.420;10.952;2023-05-12T07:52:10;100458.03;;;13.40;100.00
23427;BME280;41148;45.420;10.952;2023-05-12T07:54:38;100448.69;;;13.51;100.00
23427;BME280;41148;45.420;10.952;2023-05-12T07:57:06;100452.66;;;13.62;100.00
23427;BME280;41148;45.420;10.952;2023-05-12T07:59:33;100456.44;;;13.57;100.00
23427;BME280;41148;45.420;10.952;2023-05-12T08:02:00;100460.06;;;13.56;100.00
23427;BME280;41148;45.420;10.952;2023-05-12T08:04:28;100460.28;;;13.51;100.00
23427;BME280;41148;45.420;10.952;2023-05-12T08:06:55;100465.56;;;13.53;100.00
23427;BME280;41148;45.420;10.952;2023-05-12T08:09:23;100462.75;;;13.56;100.00
23427;BME280;41148;45.420;10.952;2023-05-12T08:11:50;100459.19;;;13.55;100.00
23427;BME280;41148;45.420;10.952;2023-05-12T08:14:18;100464.28;;;13.61;100.00
23427;BME280;41148;45.420;10.952;2023-05-12T08:16:47;100464.47;;;13.57;100.00
23427;BME280;41148;45.420;10.952;2023-05-12T08:19:15;100460.28;;;13.51;100.00
23427;BME280;41148;45.420;10.952;2023-05-12T08:21:43;100468.81;;;13.59;100.00
23427;BME280;41148;45.420;10.952;2023-05-12T08:24:10;100470.44;;;13.63;100.00
23427;BME280;41148;45.420;10.952;2023-05-12T08:26:38;100475.66;;;13.66;100.00
23427;BME280;41148;45.420;10.952;2023-05-12T08:29:05;100460.22;;;13.53;100.00
23427;BME280;41148;45.420;10.952;2023-05-12T08:31:36;100480.41;;;13.60;100.00
23427;BME280;41148;45.420;10.952;2023-05-12T08:34:04;100492.66;;;13.65;100.00
23427;BME280;41148;45.420;10.952;2023-05-12T08:36:40;100478.19;;;13.69;100.00
23427;BME280;41148;45.420;10.952;2023-05-12T08:39:10;100479.13;;;13.68;100.00
23427;BME280;41148;45.420;10.952;2023-05-12T08:44:05;100483.22;;;13.77;100.00
23427;BME280;41148;45.420;10.952;2023-05-12T08:46:33;100489.41;;;13.98;100.00
23427;BME280;41148;45.420;10.952;2023-05-12T08:49:02;100489.69;;;13.92;100.00
23427;BME280;41148;45.420;10.952;2023-05-12T08:51:31;100484.47;;;13.89;100.00
23427;BME280;41148;45.420;10.952;2023-05-12T08:53:59;100497.59;;;13.74;100.00
23427;BME280;41148;45.420;10.952;2023-05-12T08:56:28;100484.78;;;13.62;100.00
23427;BME280;41148;45.420;10.952;2023-05-12T08:58:59;100469.44;;;13.66;100.00
23427;BME280;41148;45.420;10.952;2023-05-12T09:01:27;100480.06;;;13.67;100.00
23427;BME280;41148;45.420;10.952;2023-05-12T09:03:55;100487.63;;;13.58;100.00
23427;BME280;41148;45.420;10.952;2023-05-12T09:06:23;100491.94;;;13.62;100.00
23427;BME280;41148;45.420;10.952;2023-05-12T09:08:51;100487.44;;;13.62;100.00
23427;BME280;41148;45.420;10.952;2023-05-12T09:11:18;100496.13;;;13.67;100.00
23427;BME280;41148;45.420;10.952;2023-05-12T09:14:11;100496.41;;;13.61;100.00
23427;BME280;41148;45.420;10.952;2023-05-12T09:16:49;100499.81;;;13.65;100.00
23427;BME280;41148;45.420;10.952;2023-05-12T09:19:20;100497.78;;;13.70;100.00
23427;BME280;41148;45.420;10.952;2023-05-12T09:21:47;100508.16;;;13.78;100.00
23427;BME280;41148;45.420;10.952;2023-05-12T09:24:15;100495.31;;;13.86;100.00
23427;BME280;41148;45.420;10.952;2023-05-12T09:26:50;100495.06;;;13.92;98.58
23427;BME280;41148;45.420;10.952;2023-05-12T09:29:19;100496.16;;;14.07;99.08
23427;BME280;41148;45.420;10.952;2023-05-12T09:31:59;100493.56;;;14.05;99.25
23427;BME280;41148;45.420;10.952;2023-05-12T09:34:30;100496.91;;;14.10;99.61
23427;BME280;41148;45.420;10.952;2023-05-12T09:37:00;100501.03;;;14.17;99.14
23427;BME280;41148;45.420;10.952;2023-05-12T09:39:28;100484.69;;;14.42;96.88
23427;BME280;41148;45.420;10.952;2023-05-12T09:41:55;100496.84;;;14.51;96.40
23427;BME280;41148;45.420;10.952;2023-05-12T09:44:24;100489.16;;;14.62;96.95
23427;BME280;41148;45.420;10.952;2023-05-12T09:46:51;100489.84;;;14.66;93.23
23427;BME280;41148;45.420;10.952;2023-05-12T09:49:23;100491.16;;;14.76;90.80
23427;BME280;41148;45.420;10.952;2023-05-12T09:51:56;100485.50;;;14.82;90.01
23427;BME280;41148;45.420;10.952;2023-05-12T09:54:29;100490.88;;;14.82;91.56
23427;BME280;41148;45.420;10.952;2023-05-12T09:56:59;100481.94;;;14.81;87.80
23427;BME280;41148;45.420;10.952;2023-05-12T09:59:32;100481.88;;;14.83;87.47
23427;BME280;41148;45.420;10.952;2023-05-12T10:02:00;100461.63;;;14.95;87.89
23427;BME280;41148;45.420;10.952;2023-05-12T10:04:31;100481.22;;;15.14;90.29
23427;BME280;41148;45.420;10.952;2023-05-12T10:07:07;100479.19;;;15.19;87.23
23427;BME280;41148;45.420;10.952;2023-05-12T10:09:37;100478.81;;;15.27;86.01
23427;BME280;41148;45.420;10.952;2023-05-12T10:12:08;100485.53;;;15.35;86.86
23427;BME280;41148;45.420;10.952;2023-05-12T10:14:36;100480.66;;;15.25;85.59
23427;BME280;41148;45.420;10.952;2023-05-12T10:17:04;100488.13;;;15.37;86.63
23427;BME280;41148;45.420;10.952;2023-05-12T10:19:33;100483.53;;;15.22;87.17
23427;BME280;41148;45.420;10.952;2023-05-12T10:22:01;100482.97;;;15.32;86.92
23427;BME280;41148;45.420;10.952;2023-05-12T10:24:30;100473.56;;;15.24;86.25
23427;BME280;41148;45.420;10.952;2023-05-12T10:26:58;100490.31;;;15.29;86.94
23427;BME280;41148;45.420;10.952;2023-05-12T10:29:28;100484.31;;;15.41;84.61
23427;BME280;41148;45.420;10.952;2023-05-12T10:31:58;100498.47;;;15.44;84.07
23427;BME280;41148;45.420;10.952;2023-05-12T10:34:34;100501.78;;;15.50;83.24
23427;BME280;41148;45.420;10.952;2023-05-12T10:37:04;100494.13;;;15.42;82.07
23427;BME280;41148;45.420;10.952;2023-05-12T10:39:36;100496.09;;;15.38;83.50
23427;BME280;41148;45.420;10.952;2023-05-12T10:42:08;100506.75;;;15.40;83.94
23427;BME280;41148;45.420;10.952;2023-05-12T10:44:48;100507.19;;;15.67;81.98
23427;BME280;41148;45.420;10.952;2023-05-12T10:47:16;100508.38;;;15.61;80.82
23427;BME280;41148;45.420;10.952;2023-05-12T10:49:43;100501.78;;;15.50;80.41
23427;BME280;41148;45.420;10.952;2023-05-12T10:52:11;100503.38;;;15.36;80.09
23427;BME280;41148;45.420;10.952;2023-05-12T10:54:41;100504.06;;;15.40;81.44
23427;BME280;41148;45.420;10.952;2023-05-12T10:57:19;100504.31;;;15.53;80.59
23427;BME280;41148;45.420;10.952;2023-05-12T10:59:49;100513.00;;;15.40;80.93
23427;BME280;41148;45.420;10.952;2023-05-12T11:02:22;100511.56;;;15.33;82.00
23427;BME280;41148;45.420;10.952;2023-05-12T11:04:59;100507.91;;;15.34;80.48
23427;BME280;41148;45.420;10.952;2023-05-12T11:07:52;100508.72;;;15.36;80.27
23427;BME280;41148;45.420;10.952;2023-05-12T11:10:20;100506.44;;;15.29;81.97
23427;BME280;41148;45.420;10.952;2023-05-12T11:12:48;100506.59;;;15.43;81.57
23427;BME280;41148;45.420;10.952;2023-05-12T11:15:16;100511.16;;;15.41;84.45
23427;BME280;41148;45.420;10.952;2023-05-12T11:17:45;100507.47;;;15.26;85.43
23427;BME280;41148;45.420;10.952;2023-05-12T11:20:25;100509.84;;;15.50;83.45
23427;BME280;41148;45.420;10.952;2023-05-12T11:22:55;100500.09;;;15.66;83.08
23427;BME280;41148;45.420;10.952;2023-05-12T11:25:25;100506.75;;;15.57;82.83
23427;BME280;41148;45.420;10.952;2023-05-12T11:27:53;100509.72;;;15.70;82.31
23427;BME280;41148;45.420;10.952;2023-05-12T11:30:21;100492.31;;;15.60;81.39
23427;BME280;41148;45.420;10.952;2023-05-12T11:32:59;100496.59;;;15.81;81.72
23427;BME280;41148;45.420;10.952;2023-05-12T11:35:30;100498.00;;;15.88;81.08
23427;BME280;41148;45.420;10.952;2023-05-12T11:37:58;100508.56;;;15.91;81.08
23427;BME280;41148;45.420;10.952;2023-05-12T11:40:25;100510.84;;;15.66;81.97
23427;BME280;41148;45.420;10.952;2023-05-12T11:42:53;100505.84;;;15.76;81.93
23427;BME280;41148;45.420;10.952;2023-05-12T11:45:29;100502.91;;;15.80;81.82
23427;BME280;41148;45.420;10.952;2023-05-12T11:48:10;100503.00;;;15.79;81.27
23427;BME280;41148;45.420;10.952;2023-05-12T11:50:40;100498.63;;;15.59;82.82
23427;BME280;41148;45.420;10.952;2023-05-12T11:53:12;100501.50;;;15.73;82.92
23427;BME280;41148;45.420;10.952;2023-05-12T11:55:52;100488.00;;;15.74;84.33
23427;BME280;41148;45.420;10.952;2023-05-12T11:58:22;100487.56;;;15.82;84.42
23427;BME280;41148;45.420;10.952;2023-05-12T12:00:53;100487.03;;;15.93;81.65
23427;BME280;41148;45.420;10.952;2023-05-12T12:03:20;100492.50;;;15.74;81.89
23427;BME280;41148;45.420;10.952;2023-05-12T12:05:59;100492.72;;;15.87;79.95
23427;BME280;41148;45.420;10.952;2023-05-12T12:08:27;100483.41;;;15.94;79.63
23427;BME280;41148;45.420;10.952;2023-05-12T12:10:55;100498.53;;;16.12;80.79
23427;BME280;41148;45.420;10.952;2023-05-12T12:13:24;100475.56;;;15.72;80.20
23427;BME280;41148;45.420;10.952;2023-05-12T12:15:52;100489.56;;;15.61;80.79
23427;BME280;41148;45.420;10.952;2023-05-12T12:18:19;100501.81;;;15.84;81.11
23427;BME280;41148;45.420;10.952;2023-05-12T12:20:47;100490.97;;;15.86;81.25
23427;BME280;41148;45.420;10.952;2023-05-12T12:23:14;100504.81;;;15.95;79.95
23427;BME280;41148;45.420;10.952;2023-05-12T12:25:42;100502.56;;;16.03;80.55
23427;BME280;41148;45.420;10.952;2023-05-12T12:28:09;100485.00;;;16.14;78.55
23427;BME280;41148;45.420;10.952;2023-05-12T12:30:37;100485.28;;;16.25;75.97
23427;BME280;41148;45.420;10.952;2023-05-12T12:33:04;100490.53;;;16.11;78.38
23427;BME280;41148;45.420;10.952;2023-05-12T12:35:32;100479.53;;;16.15;77.23
23427;BME280;41148;45.420;10.952;2023-05-12T12:37:59;100478.56;;;16.65;75.58
23427;BME280;41148;45.420;10.952;2023-05-12T12:40:27;100491.91;;;16.67;74.80
23427;BME280;41148;45.420;10.952;2023-05-12T12:42:54;100477.38;;;16.71;74.25
23427;BME280;41148;45.420;10.952;2023-05-12T12:45:22;100477.75;;;16.31;75.98